sensor_id;sensor_type;location;lat;lon;timestamp;pressure;altitude;pressure_sealevel;temperature;humidity
61870;BME280;47810;42.264;23.826;2023-08-08T00:00:35;93584.44;;;18.08;79.30
61870;BME280;47810;42.264;23.826;2023-08-08T00:03:01;93588.13;;;17.97;79.48
61870;BME280;47810;42.264;23.826;2023-08-08T00:05:26;93587.41;;;18.05;79.63
61870;BME280;47810;42.264;23.826;2023-08-08T00:07:52;93584.81;;;17.95;80.62
61870;BME280;47810;42.264;23.826;2023-08-08T00:10:18;93580.59;;;17.92;81.91
61870;BME280;47810;42.264;23.826;2023-08-08T00:12:43;93589.31;;;17.95;82.07
61870;BME280;47810;42.264;23.826;2023-08-08T00:15:10;93591.66;;;17.98;80.42
61870;BME280;47810;42.264;23.826;2023-08-08T00:17:36;93595.88;;;18.18;79.57
61870;BME280;47810;42.264;23.826;2023-08-08T00:20:02;93596.47;;;18.12;80.81
61870;BME280;47810;42.264;23.826;2023-08-08T00:22:27;93598.00;;;17.97;81.19
61870;BME280;47810;42.264;23.826;2023-08-08T00:24:54;93606.78;;;17.89;80.50
61870;BME280;47810;42.264;23.826;2023-08-08T00:27:19;93609.88;;;17.84;80.66
61870;BME280;47810;42.264;23.826;2023-08-08T00:29:45;93610.88;;;17.46;83.98
61870;BME280;47810;42.264;23.826;2023-08-08T00:32:11;93611.75;;;17.46;83.61
61870;BME280;47810;42.264;23.826;2023-08-08T00:34:36;93621.78;;;17.62;81.95
61870;BME280;47810;42.264;23.826;2023-08-08T00:37:02;93608.28;;;17.64;82.20
61870;BME280;47810;42.264;23.826;2023-08-08T00:39:27;93605.22;;;17.59;83.61
61870;BME280;47810;42.264;23.826;2023-08-08T00:41:53;93606.13;;;17.50;83.10
61870;BME280;47810;42.264;23.826;2023-08-08T00:44:18;93608.97;;;17.38;84.84
61870;BME280;47810;42.264;23.826;2023-08-08T00:46:45;93620.06;;;17.43;84.99
61870;BME280;47810;42.264;23.826;2023-08-08T00:49:14;93606.16;;;17.40;85.37
61870;BME280;47810;42.264;23.826;2023-08-08T00:51:40;93606.53;;;17.45;85.03
61870;BME280;47810;42.264;23.826;2023-08-08T00:54:05;93603.34;;;17.41;83.87
61870;BME280;47810;42.264;23.826;2023-08-08T00:56:31;93611.94;;;16.88;87.05
61870;BME280;47810;42.264;23.826;2023-08-08T00:58:57;93610.22;;;17.07;86.59
61870;BME280;47810;42.264;23.826;2023-08-08T01:01:23;93607.09;;;17.21;86.55
61870;BME280;47810;42.264;23.826;2023-08-08T01:03:48;93602.63;;;17.12;86.23
61870;BME280;47810;42.264;23.826;2023-08-08T01:08:45;93610.06;;;17.45;83.40
61870;BME280;47810;42.264;23.826;2023-08-08T01:11:13;93615.59;;;17.62;82.69
61870;BME280;47810;42.264;23.826;2023-08-08T01:13:39;93606.91;;;17.60;83.69
61870;BME280;47810;42.264;23.826;2023-08-08T01:16:05;93615.59;;;17.62;83.44
61870;BME280;47810;42.264;23.826;2023-08-08T01:18:32;93633.09;;;17.46;84.06
61870;BME280;47810;42.264;23.826;2023-08-08T01:20:58;93629.94;;;17.61;84.01
61870;BME280;47810;42.264;23.826;2023-08-08T01:25:53;93632.47;;;17.62;81.92
61870;BME280;47810;42.264;23.826;2023-08-08T01:28:24;93634.28;;;17.62;81.60
61870;BME280;47810;42.264;23.826;2023-08-08T01:30:50;93621.03;;;17.70;81.21
61870;BME280;47810;42.264;23.826;2023-08-08T01:33:16;93619.75;;;17.74;81.32
61870;BME280;47810;42.264;23.826;2023-08-08T01:35:50;93611.94;;;17.63;81.91
61870;BME280;47810;42.264;23.826;2023-08-08T01:38:23;93628.56;;;17.57;82.11
61870;BME280;47810;42.264;23.826;2023-08-08T01:40:53;93638.75;;;17.43;82.38
61870;BME280;47810;42.264;23.826;2023-08-08T01:43:20;93636.19;;;17.42;83.06
61870;BME280;47810;42.264;23.826;2023-08-08T01:45:47;93633.63;;;17.13;84.33
61870;BME280;47810;42.264;23.826;2023-08-08T01:48:13;93630.41;;;17.09;83.84
61870;BME280;47810;42.264;23.826;2023-08-08T01:50:39;93640.78;;;17.22;83.49
61870;BME280;47810;42.264;23.826;2023-08-08T01:53:06;93650.53;;;16.94;85.59
61870;BME280;47810;42.264;23.826;2023-08-08T01:55:31;93646.91;;;16.75;85.67
61870;BME280;47810;42.264;23.826;2023-08-08T01:57:57;93634.16;;;16.79;86.04
61870;BME280;47810;42.264;23.826;2023-08-08T02:00:23;93630.47;;;16.70;85.34
61870;BME280;47810;42.264;23.826;2023-08-08T02:02:48;93624.31;;;16.89;84.97
61870;BME280;47810;42.264;23.826;2023-08-08T02:05:15;93629.63;;;16.89;85.09
61870;BME280;47810;42.264;23.826;2023-08-08T02:07:40;93641.16;;;16.80;84.93
61870;BME280;47810;42.264;23.826;2023-08-08T02:10:06;93645.91;;;16.96;83.87
61870;BME280;47810;42.264;23.826;2023-08-08T02:12:32;93652.66;;;16.81;84.64
61870;BME280;47810;42.264;23.826;2023-08-08T02:14:58;93651.50;;;17.03;83.10
61870;BME280;47810;42.264;23.826;2023-08-08T02:17:24;93661.31;;;17.12;83.09
61870;BME280;47810;42.264;23.826;2023-08-08T02:19:50;93663.50;;;17.26;82.46
61870;BME280;47810;42.264;23.826;2023-08-08T02:22:15;93661.03;;;17.15;84.33
61870;BME280;47810;42.264;23.826;2023-08-08T02:24:41;93647.66;;;17.25;82.17
61870;BME280;47810;42.264;23.826;2023-08-08T02:27:06;93643.31;;;17.14;83.71
61870;BME280;47810;42.264;23.826;2023-08-08T02:29:32;93640.34;;;17.17;84.12
61870;BME280;47810;42.264;23.826;2023-08-08T02:31:59;93646.75;;;16.96;83.81
61870;BME280;47810;42.264;23.826;2023-08-08T02:34:25;93658.00;;;16.81;84.59
61870;BME280;47810;42.264;23.826;2023-08-08T02:36:50;93679.47;;;16.89;85.87
61870;BME280;47810;42.264;23.826;2023-08-08T02:39:17;93681.84;;;16.92;84.72
61870;BME280;47810;42.264;23.826;2023-08-08T02:41:43;93680.03;;;16.92;84.13
61870;BME280;47810;42.264;23.826;2023-08-08T02:44:10;93683.50;;;17.03;83.06
61870;BME280;47810;42.264;23.826;2023-08-08T02:46:35;93682.66;;;17.12;82.79
61870;BME280;47810;42.264;23.826;2023-08-08T02:49:03;93693.31;;;17.12;83.27
61870;BME280;47810;42.264;23.826;2023-08-08T02:51:31;93696.41;;;16.97;85.25
61870;BME280;47810;42.264;23.826;2023-08-08T02:53:57;93707.38;;;16.94;85.04
61870;BME280;47810;42.264;23.826;2023-08-08T02:56:23;93708.47;;;16.63;85.00
61870;BME280;47810;42.264;23.826;2023-08-08T02:58:48;93711.22;;;16.03;87.08
61870;BME280;47810;42.264;23.826;2023-08-08T03:01:14;93711.81;;;15.76;87.70
61870;BME280;47810;42.264;23.826;2023-08-08T03:03:41;93721.25;;;15.80;86.68
61870;BME280;47810;42.264;23.826;2023-08-08T03:06:07;93724.84;;;15.69;86.90
61870;BME280;47810;42.264;23.826;2023-08-08T03:08:32;93732.69;;;15.71;84.90
61870;BME280;47810;42.264;23.826;2023-08-08T03:10:58;93751.38;;;15.59;85.68
61870;BME280;47810;42.264;23.826;2023-08-08T03:13:23;93756.69;;;15.29;85.64
61870;BME280;47810;42.264;23.826;2023-08-08T03:15:49;93755.44;;;15.33;85.69
61870;BME280;47810;42.264;23.826;2023-08-08T03:18:15;93761.56;;;15.24;84.14
61870;BME280;47810;42.264;23.826;2023-08-08T03:20:41;93747.56;;;15.22;84.98
61870;BME280;47810;42.264;23.826;2023-08-08T03:23:06;93749.50;;;15.20;83.68
61870;BME280;47810;42.264;23.826;2023-08-08T03:25:32;93761.44;;;15.25;82.82
61870;BME280;47810;42.264;23.826;2023-08-08T03:27:57;93752.88;;;15.22;81.80
61870;BME280;47810;42.264;23.826;2023-08-08T03:30:24;93761.03;;;15.30;81.59
61870;BME280;47810;42.264;23.826;2023-08-08T03:32:49;93767.81;;;15.44;81.71
61870;BME280;47810;42.264;23.826;2023-08-08T03:35:15;93772.00;;;15.36;80.77
61870;BME280;47810;42.264;23.826;2023-08-08T03:37:42;93778.50;;;15.53;80.23
61870;BME280;47810;42.264;23.826;2023-08-08T03:40:08;93772.63;;;15.50;79.81
61870;BME280;47810;42.264;23.826;2023-08-08T03:42:34;93778.66;;;15.52;80.64
61870;BME280;47810;42.264;23.826;2023-08-08T03:45:00;93782.25;;;15.41;79.62
61870;BME280;47810;42.264;23.826;2023-08-08T03:47:25;93788.69;;;15.38;80.07
61870;BME280;47810;42.264;23.826;2023-08-08T03:49:51;93791.84;;;15.32;78.47
61870;BME280;47810;42.264;23.826;2023-08-08T03:52:20;93799.22;;;15.50;78.69
61870;BME280;47810;42.264;23.826;2023-08-08T03:54:46;93796.13;;;15.24;77.44
61870;BME280;47810;42.264;23.826;2023-08-08T03:57:11;93802.03;;;15.06;77.46
61870;BME280;47810;42.264;23.826;2023-08-08T03:59:37;93793.28;;;15.16;78.08
61870;BME280;47810;42.264;23.826;2023-08-08T04:02:03;93796.91;;;15.14;75.46
61870;BME280;47810;42.264;23.826;2023-08-08T04:04:30;93804.22;;;15.01;77.55
61870;BME280;47810;42.264;23.826;2023-08-08T04:06:56;93812.00;;;14.93;76.30
61870;BME280;47810;42.264;23.826;2023-08-08T04:09:21;93809.25;;;15.16;77.67
61870;BME280;47810;42.264;23.826;2023-08-08T04:11:47;93817.47;;;15.12;78.56
61870;BME280;47810;42.264;23.826;2023-08-08T04:14:13;93820.94;;;14.92;78.09
61870;BME280;47810;42.264;23.826;2023-08-08T04:16:38;93832.78;;;14.99;78.71
61870;BME280;47810;42.264;23.826;2023-08-08T04:19:04;93832.25;;;14.73;79.10
61870;BME280;47810;42.264;23.826;2023-08-08T04:21:30;93832.91;;;14.54;81.07
61870;BME280;47810;42.264;23.826;2023-08-08T04:23:58;93823.72;;;14.58;79.95
61870;BME280;47810;42.264;23.826;2023-08-08T04:26:25;93822.72;;;14.71;80.55
61870;BME280;47810;42.264;23.826;2023-08-08T04:28:51;93815.00;;;14.67;80.94
61870;BME280;47810;42.264;23.826;2023-08-08T04:31:17;93809.59;;;14.47;81.17
61870;BME280;47810;42.264;23.826;2023-08-08T04:33:43;93809.84;;;14.55;80.77
61870;BME280;47810;42.264;23.826;2023-08-08T04:36:08;93810.63;;;14.66;78.20
61870;BME280;47810;42.264;23.826;2023-08-08T04:38:34;93824.88;;;14.77;78.62
61870;BME280;47810;42.264;23.826;2023-08-08T04:41:03;93823.84;;;14.89;78.04
61870;BME280;47810;42.264;23.826;2023-08-08T04:43:28;93830.13;;;14.99;76.02
61870;BME280;47810;42.264;23.826;2023-08-08T04:45:54;93836.63;;;14.95;75.56
61870;BME280;47810;42.264;23.826;2023-08-08T04:48:19;93841.69;;;14.98;75.89
61870;BME280;47810;42.264;23.826;2023-08-08T04:50:48;93830.38;;;15.17;76.99
61870;BME280;47810;42.264;23.826;2023-08-08T04:53:14;93840.34;;;15.04;75.93
61870;BME280;47810;42.264;23.826;2023-08-08T04:55:40;93830.97;;;15.21;76.40
61870;BME280;47810;42.264;23.826;2023-08-08T04:58:06;93829.28;;;15.20;76.27
61870;BME280;47810;42.264;23.826;2023-08-08T05:00:31;93826.81;;;15.28;75.93
61870;BME280;47810;42.264;23.826;2023-08-08T05:02:57;93820.78;;;15.26;76.38
61870;BME280;47810;42.264;23.826;2023-08-08T05:05:23;93823.06;;;15.09;78.21
61870;BME280;47810;42.264;23.826;2023-08-08T05:07:48;93825.19;;;15.16;77.61
61870;BME280;47810;42.264;23.826;2023-08-08T05:10:14;93837.69;;;15.25;80.27
61870;BME280;47810;42.264;23.826;2023-08-08T05:12:40;93836.34;;;15.30;79.94
61870;BME280;47810;42.264;23.826;2023-08-08T05:15:05;93836.31;;;15.42;79.49
61870;BME280;47810;42.264;23.826;2023-08-08T05:17:31;93842.84;;;15.58;77.01
61870;BME280;47810;42.264;23.826;2023-08-08T05:20:00;93843.09;;;15.67;75.66
61870;BME280;47810;42.264;23.826;2023-08-08T05:22:26;93850.72;;;15.81;74.69
61870;BME280;47810;42.264;23.826;2023-08-08T05:24:52;93853.34;;;16.02;74.21
61870;BME280;47810;42.264;23.826;2023-08-08T05:27:18;93866.53;;;16.03;75.06
61870;BME280;47810;42.264;23.826;2023-08-08T05:29:44;93868.66;;;16.10;75.49
61870;BME280;47810;42.264;23.826;2023-08-08T05:32:09;93876.56;;;16.21;76.24
61870;BME280;47810;42.264;23.826;2023-08-08T05:34:35;93869.72;;;16.28;75.61
61870;BME280;47810;42.264;23.826;2023-08-08T05:37:01;93874.53;;;16.34;75.48
61870;BME280;47810;42.264;23.826;2023-08-08T05:39:27;93874.94;;;16.39;74.16
61870;BME280;47810;42.264;23.826;2023-08-08T05:41:53;93883.22;;;16.36;72.02
61870;BME280;47810;42.264;23.826;2023-08-08T05:44:18;93882.94;;;16.39;72.17
61870;BME280;47810;42.264;23.826;2023-08-08T05:46:44;93883.59;;;16.22;72.19
61870;BME280;47810;42.264;23.826;2023-08-08T05:49:09;93879.28;;;16.40;70.86
61870;BME280;47810;42.264;23.826;2023-08-08T05:51:35;93880.66;;;16.25;72.35
61870;BME280;47810;42.264;23.826;2023-08-08T05:54:01;93885.94;;;16.15;73.74
61870;BME280;47810;42.264;23.826;2023-08-08T05:56:36;93883.03;;;15.97;72.49
61870;BME280;47810;42.264;23.826;2023-08-08T05:59:02;93874.94;;;15.99;72.66
61870;BME280;47810;42.264;23.826;2023-08-08T06:01:28;93881.97;;;16.10;74.13
61870;BME280;47810;42.264;23.826;2023-08-08T06:03:53;93874.16;;;16.18;71.54
61870;BME280;47810;42.264;23.826;2023-08-08T06:06:20;93871.38;;;16.19;70.50
61870;BME280;47810;42.264;23.826;2023-08-08T06:08:46;93869.97;;;16.15;72.90
61870;BME280;47810;42.264;23.826;2023-08-08T06:11:12;93870.00;;;16.25;71.39
61870;BME280;47810;42.264;23.826;2023-08-08T06:13:38;93880.66;;;16.25;72.48
61870;BME280;47810;42.264;23.826;2023-08-08T06:16:04;93875.47;;;16.33;72.66
61870;BME280;47810;42.264;23.826;2023-08-08T06:18:32;93873.28;;;16.38;71.25
61870;BME280;47810;42.264;23.826;2023-08-08T06:20:58;93879.84;;;16.34;70.37
61870;BME280;47810;42.264;23.826;2023-08-08T06:23:24;93877.88;;;16.36;70.87
61870;BME280;47810;42.264;23.826;2023-08-08T06:25:50;93881.44;;;16.16;71.37
61870;BME280;47810;42.264;23.826;2023-08-08T06:28:16;93880.13;;;16.31;70.96
61870;BME280;47810;42.264;23.826;2023-08-08T06:30:42;93881.00;;;16.41;70.45
61870;BME280;47810;42.264;23.826;2023-08-08T06:33:10;93877.13;;;16.65;72.39
61870;BME280;47810;42.264;23.826;2023-08-08T06:35:36;93872.09;;;16.71;70.49
61870;BME280;47810;42.264;23.826;2023-08-08T06:38:02;93872.44;;;16.88;68.99
61870;BME280;47810;42.264;23.826;2023-08-08T06:40:29;93874.28;;;16.87;68.96
61870;BME280;47810;42.264;23.826;2023-08-08T06:42:55;93880.06;;;16.92;69.21
61870;BME280;47810;42.264;23.826;2023-08-08T06:45:21;93883.13;;;16.97;66.78
61870;BME280;47810;42.264;23.826;2023-08-08T06:47:47;93873.88;;;17.02;67.34
61870;BME280;47810;42.264;23.826;2023-08-08T06:50:13;93874.19;;;17.08;67.27
61870;BME280;47810;42.264;23.826;2023-08-08T06:52:39;93882.59;;;17.23;67.26
61870;BME280;47810;42.264;23.826;2023-08-08T06:55:05;93880.34;;;17.18;67.49
61870;BME280;47810;42.264;23.826;2023-08-08T06:57:32;93889.63;;;17.34;69.10
61870;BME280;47810;42.264;23.826;2023-08-08T06:59:59;93891.31;;;17.44;68.72
61870;BME280;47810;42.264;23.826;2023-08-08T07:02:25;93887.81;;;17.44;67.12
61870;BME280;47810;42.264;23.826;2023-08-08T07:04:50;93889.38;;;17.46;65.52
61870;BME280;47810;42.264;23.826;2023-08-08T07:07:16;93900.31;;;17.63;66.60
61870;BME280;47810;42.264;23.826;2023-08-08T07:09:42;93892.16;;;17.84;65.83
61870;BME280;47810;42.264;23.826;2023-08-08T07:12:08;93902.78;;;18.13;69.38
61870;BME280;47810;42.264;23.826;2023-08-08T07:14:34;93907.97;;;18.24;65.06
61870;BME280;47810;42.264;23.826;2023-08-08T07:17:00;93912.63;;;18.12;64.14
61870;BME280;47810;42.264;23.826;2023-08-08T07:19:28;93917.72;;;17.96;63.64
61870;BME280;47810;42.264;23.826;2023-08-08T07:21:53;93927.56;;;17.76;62.72
61870;BME280;47810;42.264;23.826;2023-08-08T07:24:19;93931.47;;;17.43;63.14
61870;BME280;47810;42.264;23.826;2023-08-08T07:26:45;93923.19;;;17.56;62.81
61870;BME280;47810;42.264;23.826;2023-08-08T07:29:11;93924.66;;;17.79;61.67
61870;BME280;47810;42.264;23.826;2023-08-08T07:31:36;93933.47;;;17.70;62.01
61870;BME280;47810;42.264;23.826;2023-08-08T07:34:02;93939.22;;;17.56;61.63
61870;BME280;47810;42.264;23.826;2023-08-08T07:36:28;93936.25;;;17.59;63.70
61870;BME280;47810;42.264;23.826;2023-08-08T07:38:54;93933.03;;;18.04;63.83
61870;BME280;47810;42.264;23.826;2023-08-08T07:41:25;93936.53;;;18.24;61.49
61870;BME280;47810;42.264;23.826;2023-08-08T07:43:51;93941.16;;;18.22;62.19
61870;BME280;47810;42.264;23.826;2023-08-08T07:46:17;93943.59;;;18.05;60.76
61870;BME280;47810;42.264;23.826;2023-08-08T07:48:42;93937.16;;;17.88;60.12
61870;BME280;47810;42.264;23.826;2023-08-08T07:51:08;93942.47;;;17.69;61.28
61870;BME280;47810;42.264;23.826;2023-08-08T07:53:34;93941.03;;;17.65;62.95
61870;BME280;47810;42.264;23.826;2023-08-08T07:55:59;93942.47;;;17.59;61.93
61870;BME280;47810;42.264;23.826;2023-08-08T07:58:25;93942.88;;;17.74;61.89
61870;BME280;47810;42.264;23.826;2023-08-08T08:00:52;93936.25;;;17.59;61.05
61870;BME280;47810;42.264;23.826;2023-08-08T08:03:21;93934.88;;;17.55;61.83
61870;BME280;47810;42.264;23.826;2023-08-08T08:05:47;93934.59;;;17.48;61.72
61870;BME280;47810;42.264;23.826;2023-08-08T08:08:13;93939.75;;;17.30;62.68
61870;BME280;47810;42.264;23.826;2023-08-08T08:10:38;93939.09;;;17.48;62.88
61870;BME280;47810;42.264;23.826;2023-08-08T08:13:04;93937.53;;;17.55;63.38
61870;BME280;47810;42.264;23.826;2023-08-08T08:15:29;93940.47;;;17.71;63.51
61870;BME280;47810;42.264;23.826;2023-08-08T08:17:56;93931.94;;;17.77;62.83
61870;BME280;47810;42.264;23.826;2023-08-08T08:20:21;93935.44;;;17.87;61.64
61870;BME280;47810;42.264;23.826;2023-08-08T08:22:52;93938.53;;;17.92;63.51
61870;BME280;47810;42.264;23.826;2023-08-08T08:25:19;93934.97;;;18.21;63.02
61870;BME280;47810;42.264;23.826;2023-08-08T08:27:45;93936.78;;;18.68;60.27
61870;BME280;47810;42.264;23.826;2023-08-08T08:30:11;93928.34;;;19.00;58.86
61870;BME280;47810;42.264;23.826;2023-08-08T08:32:37;93919.31;;;19.11;59.52
61870;BME280;47810;42.264;23.826;2023-08-08T08:35:03;93923.88;;;18.91;57.33
61870;BME280;47810;42.264;23.826;2023-08-08T08:37:32;93933.38;;;18.85;57.86
61870;BME280;47810;42.264;23.826;2023-08-08T08:39:58;93926.38;;;18.74;57.22
61870;BME280;47810;42.264;23.826;2023-08-08T08:42:24;93920.91;;;18.66;57.86
61870;BME280;47810;42.264;23.826;2023-08-08T08:44:49;93918.66;;;18.61;59.82
61870;BME280;47810;42.264;23.826;2023-08-08T08:47:17;93917.28;;;18.95;59.32
61870;BME280;47810;42.264;23.826;2023-08-08T08:49:43;93920.72;;;19.05;59.23
61870;BME280;47810;42.264;23.826;2023-08-08T08:52:11;93927.19;;;18.84;59.75
61870;BME280;47810;42.264;23.826;2023-08-08T08:54:36;93917.75;;;18.80;59.37
61870;BME280;47810;42.264;23.826;2023-08-08T08:57:02;93914.00;;;19.01;59.31
61870;BME280;47810;42.264;23.826;2023-08-08T08:59:27;93914.91;;;19.73;59.74
61870;BME280;47810;42.264;23.826;2023-08-08T09:01:53;93918.38;;;19.65;57.24
61870;BME280;47810;42.264;23.826;2023-08-08T09:04:20;93921.13;;;19.73;57.94
61870;BME280;47810;42.264;23.826;2023-08-08T09:06:47;93912.78;;;19.76;56.83
61870;BME280;47810;42.264;23.826;2023-08-08T09:09:13;93907.13;;;20.23;56.72
61870;BME280;47810;42.264;23.826;2023-08-08T09:11:42;93910.28;;;20.71;55.75
61870;BME280;47810;42.264;23.826;2023-08-08T09:14:24;93901.47;;;20.95;56.50
61870;BME280;47810;42.264;23.826;2023-08-08T09:19:43;93898.63;;;21.47;55.27
61870;BME280;47810;42.264;23.826;2023-08-08T09:22:20;93898.31;;;21.42;53.46
61870;BME280;47810;42.264;23.826;2023-08-08T09:24:49;93895.63;;;21.67;53.18
61870;BME280;47810;42.264;23.826;2023-08-08T09:27:17;93896.97;;;22.12;54.54
61870;BME280;47810;42.264;23.826;2023-08-08T09:29:43;93887.59;;;22.07;52.20
61870;BME280;47810;42.264;23.826;2023-08-08T09:32:12;93891.97;;;22.17;52.68
61870;BME280;47810;42.264;23.826;2023-08-08T09:34:51;93901.81;;;22.65;50.10
61870;BME280;47810;42.264;23.826;2023-08-08T09:37:16;93892.91;;;22.65;47.63
61870;BME280;47810;42.264;23.826;2023-08-08T09:39:42;93902.31;;;22.69;48.51
61870;BME280;47810;42.264;23.826;2023-08-08T09:42:08;93892.22;;;22.63;47.57
61870;BME280;47810;42.264;23.826;2023-08-08T09:44:33;93891.97;;;22.33;50.09
61870;BME280;47810;42.264;23.826;2023-08-08T09:47:00;93890.63;;;23.01;47.35
61870;BME280;47810;42.264;23.826;2023-08-08T09:49:26;93897.09;;;23.23;49.67
61870;BME280;47810;42.264;23.826;2023-08-08T09:51:52;93890.88;;;23.54;46.30
61870;BME280;47810;42.264;23.826;2023-08-08T09:54:18;93889.84;;;23.55;45.36
61870;BME280;47810;42.264;23.826;2023-08-08T09:56:43;93883.97;;;23.20;44.68
61870;BME280;47810;42.264;23.826;2023-08-08T09:59:09;93891.09;;;23.05;47.84
61870;BME280;47810;42.264;23.826;2023-08-08T10:01:36;93885.84;;;23.11;44.70
61870;BME280;47810;42.264;23.826;2023-08-08T10:04:04;93893.25;;;23.48;44.73
61870;BME280;47810;42.264;23.826;2023-08-08T10:06:31;93899.16;;;23.75;43.11
61870;BME280;47810;42.264;23.826;2023-08-08T10:08:58;93893.91;;;24.20;45.39
61870;BME280;47810;42.264;23.826;2023-08-08T10:11:24;93896.56;;;24.28;41.56
61870;BME280;47810;42.264;23.826;2023-08-08T10:13:52;93896.31;;;24.37;40.86
61870;BME280;47810;42.264;23.826;2023-08-08T10:16:18;93898.31;;;24.44;42.61
61870;BME280;47810;42.264;23.826;2023-08-08T10:18:54;93897.88;;;24.32;40.98
61870;BME280;47810;42.264;23.826;2023-08-08T10:21:22;93895.53;;;24.29;42.20
61870;BME280;47810;42.264;23.826;2023-08-08T10:23:49;93898.56;;;24.11;44.08
61870;BME280;47810;42.264;23.826;2023-08-08T10:26:18;93896.63;;;24.20;41.45
61870;BME280;47810;42.264;23.826;2023-08-08T10:28:57;93905.88;;;24.02;41.93
61870;BME280;47810;42.264;23.826;2023-08-08T10:31:23;93897.22;;;23.61;40.24
61870;BME280;47810;42.264;23.826;2023-08-08T10:33:48;93891.09;;;23.05;42.07
61870;BME280;47810;42.264;23.826;2023-08-08T10:36:15;93899.88;;;22.90;42.89
61870;BME280;47810;42.264;23.826;2023-08-08T10:41:11;93901.06;;;22.16;45.81
61870;BME280;47810;42.264;23.826;2023-08-08T10:43:38;93893.63;;;22.34;47.86
61870;BME280;47810;42.264;23.826;2023-08-08T10:46:12;93894.47;;;23.07;45.48
61870;BME280;47810;42.264;23.826;2023-08-08T10:48:53;93899.13;;;23.83;42.83
61870;BME280;47810;42.264;23.826;2023-08-08T10:51:37;93894.06;;;24.03;41.04
61870;BME280;47810;42.264;23.826;2023-08-08T10:54:06;93898.47;;;24.19;42.26
61870;BME280;47810;42.264;23.826;2023-08-08T10:56:32;93901.81;;;23.83;42.14
61870;BME280;47810;42.264;23.826;2023-08-08T10:59:11;93895.13;;;23.40;43.09
61870;BME280;47810;42.264;23.826;2023-08-08T11:01:37;93892.13;;;23.66;42.33
61870;BME280;47810;42.264;23.826;2023-08-08T11:04:02;93883.06;;;24.28;42.66
61870;BME280;47810;42.264;23.826;2023-08-08T11:06:29;93883.06;;;24.80;40.81
61870;BME280;47810;42.264;23.826;2023-08-08T11:08:55;93879.16;;;25.27;41.82
61870;BME280;47810;42.264;23.826;2023-08-08T11:11:20;93891.34;;;24.79;39.39
61870;BME280;47810;42.264;23.826;2023-08-08T11:13:46;93879.78;;;24.55;39.69
61870;BME280;47810;42.264;23.826;2023-08-08T11:16:11;93883.19;;;24.34;42.92
61870;BME280;47810;42.264;23.826;2023-08-08T11:18:37;93882.88;;;24.67;45.86
61870;BME280;47810;42.264;23.826;2023-08-08T11:21:09;93883.25;;;24.64;41.27
61870;BME280;47810;42.264;23.826;2023-08-08T11:23:34;93881.88;;;24.30;40.74
61870;BME280;47810;42.264;23.826;2023-08-08T11:26:03;93894.06;;;23.49;41.42
61870;BME280;47810;42.264;23.826;2023-08-08T11:28:29;93879.97;;;23.08;41.82
61870;BME280;47810;42.264;23.826;2023-08-08T11:30:55;93879.88;;;23.32;41.50
61870;BME280;47810;42.264;23.826;2023-08-08T11:33:20;93887.81;;;22.86;42.30
61870;BME280;47810;42.264;23.826;2023-08-08T11:35:47;93883.34;;;23.10;42.47
61870;BME280;47810;42.264;23.826;2023-08-08T11:38:14;93876.69;;;22.89;41.26
61870;BME280;47810;42.264;23.826;2023-08-08T11:40:40;93871.25;;;23.06;43.69
61870;BME280;47810;42.264;23.826;2023-08-08T11:43:05;93869.50;;;23.75;42.23
61870;BME280;47810;42.264;23.826;2023-08-08T11:45:31;93869.94;;;24.39;42.67
61870;BME280;47810;42.264;23.826;2023-08-08T11:47:58;93871.81;;;24.24;41.69
61870;BME280;47810;42.264;23.826;2023-08-08T11:50:25;93874.34;;;23.57;41.71
61870;BME280;47810;42.264;23.826;2023-08-08T11:52:53;93872.63;;;23.56;39.16
61870;BME280;47810;42.264;23.826;2023-08-08T11:55:20;93864.38;;;23.34;41.63
61870;BME280;47810;42.264;23.826;2023-08-08T11:57:49;93868.94;;;22.94;41.52
61870;BME280;47810;42.264;23.826;2023-08-08T12:00:15;93863.53;;;23.02;44.20
61870;BME280;47810;42.264;23.826;2023-08-08T12:02:42;93863.13;;;23.45;44.44
61870;BME280;47810;42.264;23.826;2023-08-08T12:05:09;93860.53;;;23.29;41.76
61870;BME280;47810;42.264;23.826;2023-08-08T12:07:36;93859.19;;;22.85;43.46
61870;BME280;47810;42.264;23.826;2023-08-08T12:10:05;93852.47;;;22.81;43.73
61870;BME280;47810;42.264;23.826;2023-08-08T12:12:32;93856.97;;;22.89;43.50
61870;BME280;47810;42.264;23.826;2023-08-08T12:15:05;93855.78;;;22.99;42.76
61870;BME280;47810;42.264;23.826;2023-08-08T12:17:31;93849.81;;;22.73;43.15
61870;BME280;47810;42.264;23.826;2023-08-08T12:20:00;93850.75;;;22.96;42.11
61870;BME280;47810;42.264;23.826;2023-08-08T12:22:25;93853.91;;;23.08;43.95
61870;BME280;47810;42.264;23.826;2023-08-08T12:24:51;93840.94;;;22.64;44.91
61870;BME280;47810;42.264;23.826;2023-08-08T12:27:17;93842.88;;;22.87;44.04
61870;BME280;47810;42.264;23.826;2023-08-08T12:29:43;93848.22;;;22.95;42.62
61870;BME280;47810;42.264;23.826;2023-08-08T12:32:09;93837.94;;;23.30;42.68
61870;BME280;47810;42.264;23.826;2023-08-08T12:34:47;93840.41;;;23.62;40.29
61870;BME280;47810;42.264;23.826;2023-08-08T12:37:12;93842.66;;;23.82;41.70
61870;BME280;47810;42.264;23.826;2023-08-08T12:39:38;93843.03;;;24.16;45.35
61870;BME280;47810;42.264;23.826;2023-08-08T12:42:04;93846.34;;;24.42;38.85
61870;BME280;47810;42.264;23.826;2023-08-08T12:44:29;93843.28;;;24.45;40.92
61870;BME280;47810;42.264;23.826;2023-08-08T12:46:55;93846.13;;;24.28;39.37
61870;BME280;47810;42.264;23.826;2023-08-08T12:49:21;93845.69;;;23.79;39.78
61870;BME280;47810;42.264;23.826;2023-08-08T12:51:49;93838.88;;;23.91;40.66
61870;BME280;47810;42.264;23.826;2023-08-08T12:54:16;93838.38;;;23.41;40.97
61870;BME280;47810;42.264;23.826;2023-08-08T12:56:42;93837.44;;;23.34;41.02